Whitney, NE (69367)

1:12 PM MST on January 28, 2015 (GMT -0700)
Chadron Municipal | Change Station
CLOSE
Current Station
Airport
Location: Chadron,
Elevation: 3297 ft
Nearby Weather Stations
Active Advisory: Wind Advisory Active Notice: Record Report

Elev 3297 ft 42.84 °N, 103.10 °W | Updated 19 minutes ago

Overcast
Overcast
52 °F
Feels Like 52 °F
N
15
Wind Variable Wind from WNW
Gusts 22 mph

Today
High -- | Low -- °F
--% Chance of Precip.
Yesterday
High -- | Low -- °F
Precip. -- in
7:11 AM 5:00 PM
Waxing Gibbous, 67% visible
Pressure 30.02 in
Visibility 10.0 miles
Clouds Few 4500 ft
Mostly Cloudy 5500 ft
Overcast 7000 ft
Dew Point 31 °F
Humidity 45%
Rainfall 0.00 in
Snow Depth Not available.
UV 1 out of 12
Pollen 2.30 out of 12
Air Quality Not available.
Flu Activity Not available.
METAR KCDR 281953Z AUTO 30013G19KT 10SM FEW045 BKN055 OVC070 11/M01 A2997 RMK AO2 PK WND 30033/1908 RAB13E52 SLP164 P0000 T01111006

More Conditions Fewer Conditions

Pressure 30.02 in
Visibility 10.0 miles
Clouds Few 4500 ft
Mostly Cloudy 5500 ft
Overcast 7000 ft
Dew Point 31 °F
Humidity 45%
Rainfall 0.00 in
Snow Depth Not available.
UV 1 out of 12
Pollen 2.30 out of 12
Air Quality Not available.
Flu Activity Not available.
METAR KCDR 281953Z AUTO 30013G19KT 10SM FEW045 BKN055 OVC070 11/M01 A2997 RMK AO2 PK WND 30033/1908 RAB13E52 SLP164 P0000 T01111006

More Conditions Fewer Conditions

10-Day Weather Forecast

Almanac

Astronomy

Jan. 28, 2015 Rise Set
Actual Time
Civil Twilight
Nautical Twilight
Astronomical Twilight
Moon
Length of Visible Light
Length of Day
Tomorrow will be .
, % of the Moon is Illuminated

Today's Extremes

State Highs State Lows

Community

WunderPhotos

Upload Photos

1,791,251 photos uploaded!

WunderBlogs® & News

Nearby

Air Quality

  Air Quality AQ Index Pollutant
Not available.

Snow Depth

Station Depth Elevation

Earthquake Activity

City Distance Mag. Time & Date
Minimum magnitude displayed is 2.5.

Coastal Water Temperatures

Place Temperature

Nearby Weather Stations